createdAt,value
2019-06-15T00:00:29.401Z,101006.17
2019-06-15T00:02:57.841Z,100996.67
2019-06-15T00:05:26.274Z,100988.89
2019-06-15T00:07:54.815Z,100989.25
2019-06-15T00:10:23.504Z,100988.53
2019-06-15T00:12:51.962Z,100983.19
2019-06-15T00:15:20.415Z,100981.41
2019-06-15T00:17:48.901Z,100976.58
2019-06-15T00:20:17.522Z,100976.08
2019-06-15T00:22:45.973Z,100969.91
2019-06-15T00:25:14.721Z,100973.83
2019-06-15T00:27:43.172Z,100964.41
2019-06-15T00:30:11.958Z,100963.56
2019-06-15T00:32:40.426Z,100963.38
2019-06-15T00:35:10.233Z,100962.32
2019-06-15T00:37:38.702Z,100953.11
2019-06-15T00:40:08.008Z,100945.05
2019-06-15T00:42:36.478Z,100941.63
2019-06-15T00:45:05.967Z,100936.47
2019-06-15T00:47:34.442Z,100931.18
2019-06-15T00:50:02.969Z,100929.38
2019-06-15T00:52:31.446Z,100924.91
2019-06-15T00:54:59.905Z,100917.72
2019-06-15T00:57:28.447Z,100917.26
2019-06-15T00:59:56.921Z,100922.17
2019-06-15T01:02:25.350Z,100917.14
2019-06-15T01:04:53.821Z,100915.22
2019-06-15T01:07:22.262Z,100915.60
2019-06-15T01:09:50.727Z,100916.97
2019-06-15T01:12:19.178Z,100908.23
2019-06-15T01:14:47.649Z,100898.92
2019-06-15T01:17:16.140Z,100892.00
2019-06-15T01:19:44.585Z,100886.36
2019-06-15T01:22:13.059Z,100889.61
2019-06-15T01:24:41.518Z,100874.78
2019-06-15T01:27:09.964Z,100879.13
2019-06-15T01:29:38.456Z,100877.47
2019-06-15T01:32:06.892Z,100884.48
2019-06-15T01:34:35.360Z,100886.14
2019-06-15T01:37:03.933Z,100883.12
2019-06-15T01:39:32.880Z,100877.98
2019-06-15T01:42:01.345Z,100860.73
2019-06-15T01:44:29.782Z,100851.17
2019-06-15T01:46:58.268Z,100842.91
2019-06-15T01:49:26.773Z,100835.41
2019-06-15T01:51:55.220Z,100829.41
2019-06-15T01:54:23.688Z,100838.16
2019-06-15T01:56:52.135Z,100835.70
2019-06-15T01:59:20.590Z,100832.22
2019-06-15T02:01:49.072Z,100823.28
2019-06-15T02:04:17.532Z,100815.12
2019-06-15T02:06:46.138Z,100795.91
2019-06-15T02:09:14.710Z,100806.04
2019-06-15T02:11:43.161Z,100827.63
2019-06-15T02:14:11.634Z,100857.59
2019-06-15T02:16:40.081Z,100870.31
2019-06-15T02:19:08.525Z,100874.56
2019-06-15T02:21:37.198Z,100871.64
2019-06-15T02:24:06.281Z,100860.16
2019-06-15T02:26:34.735Z,100858.20
2019-06-15T02:29:03.198Z,100850.68
2019-06-15T02:31:31.700Z,100848.81
2019-06-15T02:34:00.132Z,100841.17
2019-06-15T02:36:28.612Z,100836.34
2019-06-15T02:38:57.077Z,100831.80
2019-06-15T02:41:25.507Z,100833.69
2019-06-15T02:43:53.970Z,100821.86
2019-06-15T02:46:26.254Z,100805.50
2019-06-15T02:48:52.963Z,100796.59
2019-06-15T02:51:21.590Z,100798.06
2019-06-15T02:53:50.494Z,100785.98
2019-06-15T02:56:18.964Z,100779.09
2019-06-15T02:58:47.415Z,100762.87
2019-06-15T03:01:15.962Z,100732.01
2019-06-15T03:03:44.421Z,100705.94
2019-06-15T03:06:13.151Z,100696.78
2019-06-15T03:08:41.771Z,100679.30
2019-06-15T03:11:10.249Z,100663.79
2019-06-15T03:13:38.691Z,100646.15
2019-06-15T03:16:07.355Z,100627.42
2019-06-15T03:18:35.800Z,100614.43
2019-06-15T03:21:04.300Z,100592.77
2019-06-15T03:23:32.767Z,100600.61
2019-06-15T03:26:05.533Z,100608.02
2019-06-15T03:28:31.424Z,100603.97
2019-06-15T03:30:59.865Z,100590.88
2019-06-15T03:33:28.365Z,100570.22
2019-06-15T03:35:56.828Z,100551.88
2019-06-15T03:38:25.319Z,100560.09
2019-06-15T03:40:53.776Z,100551.17
2019-06-15T03:43:22.217Z,100556.47
2019-06-15T03:45:50.684Z,100560.86
2019-06-15T03:48:19.126Z,100560.56
2019-06-15T03:50:47.603Z,100578.64
2019-06-15T03:53:16.061Z,100577.70
2019-06-15T03:55:44.519Z,100573.66
2019-06-15T03:58:12.958Z,100579.20
2019-06-15T04:00:49.545Z,100581.77
2019-06-15T04:03:18.161Z,100574.59
2019-06-15T04:05:46.623Z,100579.48
2019-06-15T04:08:15.257Z,100584.16
2019-06-15T04:10:43.718Z,100587.45
2019-06-15T04:13:12.285Z,100586.97
2019-06-15T04:15:40.721Z,100586.14
2019-06-15T04:18:09.178Z,100596.45
2019-06-15T04:20:37.639Z,100596.94
2019-06-15T04:23:06.128Z,100585.25
2019-06-15T04:25:34.616Z,100585.20
2019-06-15T04:28:03.081Z,100581.95
2019-06-15T04:30:31.557Z,100590.22
2019-06-15T04:33:00.029Z,100587.54
2019-06-15T04:35:28.478Z,100597.39
2019-06-15T04:37:56.920Z,100588.19
2019-06-15T04:40:25.403Z,100583.97
2019-06-15T04:42:53.816Z,100573.80
2019-06-15T04:45:22.285Z,100564.72
2019-06-15T04:47:50.731Z,100564.28
2019-06-15T04:50:19.207Z,100566.88
2019-06-15T04:52:47.647Z,100551.11
2019-06-15T04:55:16.270Z,100547.05
2019-06-15T04:57:44.828Z,100562.55
2019-06-15T05:00:13.746Z,100578.72
2019-06-15T05:02:42.196Z,100574.29
2019-06-15T05:05:10.752Z,100566.34
2019-06-15T05:07:39.226Z,100572.27
2019-06-15T05:10:07.684Z,100562.19
2019-06-15T05:12:36.146Z,100568.91
2019-06-15T05:15:06.302Z,100574.86
2019-06-15T05:17:34.755Z,100569.58
2019-06-15T05:20:03.906Z,100578.66
2019-06-15T05:22:32.354Z,100560.06
2019-06-15T05:25:00.816Z,100568.87
2019-06-15T05:27:29.250Z,100563.63
2019-06-15T05:29:57.706Z,100555.16
2019-06-15T05:32:26.349Z,100551.91
2019-06-15T05:34:54.827Z,100542.34
2019-06-15T05:37:23.290Z,100536.89
2019-06-15T05:39:51.748Z,100521.49
2019-06-15T05:42:20.231Z,100536.67
2019-06-15T05:44:48.677Z,100536.19
2019-06-15T05:47:17.156Z,100526.77
2019-06-15T05:49:45.592Z,100544.39
2019-06-15T05:52:14.078Z,100543.23
2019-06-15T05:54:42.549Z,100533.66
2019-06-15T05:57:21.281Z,100529.38
2019-06-15T05:59:41.215Z,100535.19
2019-06-15T06:02:09.695Z,100528.48
2019-06-15T06:04:38.155Z,100523.38
2019-06-15T06:07:06.634Z,100519.63
2019-06-15T06:09:35.096Z,100514.97
2019-06-15T06:12:03.544Z,100517.55
2019-06-15T06:14:32.083Z,100521.64
2019-06-15T06:17:00.524Z,100504.44
2019-06-15T06:19:28.953Z,100516.06
2019-06-15T06:21:58.326Z,100517.91
2019-06-15T06:24:26.888Z,100518.86
2019-06-15T06:26:55.408Z,100512.41
2019-06-15T06:29:23.909Z,100505.66
2019-06-15T06:31:52.368Z,100503.17
2019-06-15T06:34:20.847Z,100499.69
2019-06-15T06:36:49.288Z,100489.12
2019-06-15T06:39:17.753Z,100497.58
2019-06-15T06:41:46.213Z,100502.08
2019-06-15T06:44:14.672Z,100506.31
2019-06-15T06:46:43.119Z,100503.45
2019-06-15T06:49:11.564Z,100497.28
2019-06-15T06:51:40.203Z,100514.72
2019-06-15T06:54:08.716Z,100520.22
2019-06-15T06:56:37.171Z,100512.45
2019-06-15T06:59:05.636Z,100511.45
2019-06-15T07:01:34.127Z,100517.73
2019-06-15T07:04:02.876Z,100527.09
2019-06-15T07:06:31.320Z,100519.30
2019-06-15T07:08:59.886Z,100512.16
2019-06-15T07:11:28.328Z,100522.66
2019-06-15T07:13:56.812Z,100518.83
2019-06-15T07:16:25.229Z,100517.12
2019-06-15T07:18:53.689Z,100518.41
2019-06-15T07:21:22.146Z,100503.38
2019-06-15T07:23:50.683Z,100508.83
2019-06-15T07:26:19.120Z,100495.19
2019-06-15T07:28:47.675Z,100490.88
2019-06-15T07:31:17.646Z,100477.67
2019-06-15T07:33:48.715Z,100479.50
2019-06-15T07:36:17.173Z,100476.55
2019-06-15T07:38:45.625Z,100475.23
2019-06-15T07:41:14.057Z,100485.89
2019-06-15T07:43:42.531Z,100477.12
2019-06-15T07:46:10.964Z,100472.13
2019-06-15T07:48:39.452Z,100463.84
2019-06-15T07:51:07.901Z,100465.19
2019-06-15T07:53:36.402Z,100458.31
2019-06-15T07:56:04.856Z,100459.12
2019-06-15T07:58:33.323Z,100455.88
2019-06-15T08:01:01.818Z,100472.26
2019-06-15T08:03:30.287Z,100480.42
2019-06-15T08:05:58.762Z,100486.78
2019-06-15T08:08:27.199Z,100490.97
2019-06-15T08:10:55.648Z,100493.45
2019-06-15T08:13:24.120Z,100486.84
2019-06-15T08:15:52.571Z,100489.81
2019-06-15T08:18:21.017Z,100486.50
2019-06-15T08:20:49.470Z,100478.26
2019-06-15T08:23:17.918Z,100482.78
2019-06-15T08:25:46.393Z,100468.73
2019-06-15T08:28:14.890Z,100469.50
2019-06-15T08:30:44.298Z,100478.52
2019-06-15T08:33:12.938Z,100476.92
2019-06-15T08:35:41.455Z,100473.19
2019-06-15T08:38:09.923Z,100467.09
2019-06-15T08:40:38.406Z,100463.68
2019-06-15T08:43:06.862Z,100473.27
2019-06-15T08:45:35.316Z,100469.77
2019-06-15T08:48:03.784Z,100459.11
2019-06-15T08:50:32.261Z,100469.09
2019-06-15T08:53:00.714Z,100447.89
2019-06-15T08:55:29.182Z,100452.39
2019-06-15T08:57:57.671Z,100450.26
2019-06-15T09:00:26.801Z,100458.98
2019-06-15T09:02:55.265Z,100452.06
2019-06-15T09:05:23.748Z,100450.84
2019-06-15T09:07:52.204Z,100449.33
2019-06-15T09:10:21.012Z,100435.53
2019-06-15T09:12:49.470Z,100449.50
2019-06-15T09:15:20.979Z,100447.98
2019-06-15T09:17:49.438Z,100437.88
2019-06-15T09:20:18.044Z,100438.67
2019-06-15T09:22:46.530Z,100435.61
2019-06-15T09:25:14.968Z,100436.41
2019-06-15T09:27:43.420Z,100437.67
2019-06-15T09:30:12.240Z,100426.91
2019-06-15T09:32:42.215Z,100420.56
2019-06-15T09:35:10.888Z,100413.75
2019-06-15T09:37:39.574Z,100408.34
2019-06-15T09:40:08.462Z,100405.48
2019-06-15T09:42:36.945Z,100397.51
2019-06-15T09:45:08.661Z,100397.75
2019-06-15T09:47:37.114Z,100398.77
2019-06-15T09:50:07.141Z,100391.96
2019-06-15T09:52:35.648Z,100385.38
2019-06-15T09:55:06.006Z,100384.86
2019-06-15T09:57:34.469Z,100382.05
2019-06-15T10:00:04.024Z,100377.48
2019-06-15T10:02:32.520Z,100378.22
2019-06-15T10:05:01.006Z,100385.66
2019-06-15T10:07:29.444Z,100387.16
2019-06-15T10:09:57.897Z,100387.55
2019-06-15T10:12:26.350Z,100379.47
2019-06-15T10:14:54.840Z,100386.44
2019-06-15T10:17:23.296Z,100387.44
2019-06-15T10:19:53.417Z,100390.92
2019-06-15T10:22:21.935Z,100392.19
2019-06-15T10:24:50.403Z,100395.36
2019-06-15T10:27:18.865Z,100397.88
2019-06-15T10:29:47.431Z,100390.08
2019-06-15T10:32:15.921Z,100395.71
2019-06-15T10:34:44.368Z,100399.19
2019-06-15T10:37:12.929Z,100391.88
2019-06-15T10:39:41.380Z,100386.53
2019-06-15T10:42:09.842Z,100391.81
2019-06-15T10:44:38.881Z,100402.52
2019-06-15T10:47:07.362Z,100394.62
2019-06-15T10:49:35.822Z,100393.91
2019-06-15T10:52:04.280Z,100394.27
2019-06-15T10:54:34.244Z,100399.30
2019-06-15T10:57:02.696Z,100402.66
2019-06-15T10:59:31.181Z,100398.37
2019-06-15T11:01:59.617Z,100404.64
2019-06-15T11:04:28.058Z,100410.06
2019-06-15T11:06:56.536Z,100411.06
2019-06-15T11:09:25.058Z,100412.39
2019-06-15T11:11:53.517Z,100411.78
2019-06-15T11:14:21.980Z,100415.88
2019-06-15T11:16:50.449Z,100414.20
2019-06-15T11:19:18.891Z,100407.09
2019-06-15T11:21:47.355Z,100411.28
2019-06-15T11:24:15.849Z,100407.37
2019-06-15T11:26:44.279Z,100402.53
2019-06-15T11:29:12.737Z,100407.97
2019-06-15T11:31:41.203Z,100409.93
2019-06-15T11:34:09.730Z,100412.45
2019-06-15T11:36:38.206Z,100413.65
2019-06-15T11:39:07.625Z,100408.91
2019-06-15T11:41:36.088Z,100417.30
2019-06-15T11:44:04.996Z,100412.27
2019-06-15T11:46:33.441Z,100417.38
2019-06-15T11:49:01.895Z,100407.73
2019-06-15T11:51:30.346Z,100411.73
2019-06-15T11:53:58.821Z,100405.50
2019-06-15T11:56:27.283Z,100405.14
2019-06-15T11:58:56.409Z,100405.03
2019-06-15T12:01:24.892Z,100409.86
2019-06-15T12:03:53.329Z,100405.15
2019-06-15T12:06:21.792Z,100408.70
2019-06-15T12:08:50.276Z,100409.75
2019-06-15T12:11:18.707Z,100408.51
2019-06-15T12:13:47.151Z,100414.39
2019-06-15T12:16:15.605Z,100406.12
2019-06-15T12:18:44.098Z,100415.15
2019-06-15T12:21:12.546Z,100423.06
2019-06-15T12:23:40.989Z,100424.98
2019-06-15T12:26:09.462Z,100422.09
2019-06-15T12:28:38.010Z,100418.52
2019-06-15T12:31:07.055Z,100418.97
2019-06-15T12:33:35.589Z,100422.52
2019-06-15T12:36:18.324Z,100416.14
2019-06-15T12:38:34.614Z,100418.97
2019-06-15T12:41:03.063Z,100420.59
2019-06-15T12:43:31.744Z,100420.86
2019-06-15T12:46:00.200Z,100423.12
2019-06-15T12:48:28.674Z,100413.70
2019-06-15T12:50:58.081Z,100421.66
2019-06-15T12:53:26.549Z,100424.63
2019-06-15T12:55:55.024Z,100421.03
2019-06-15T12:58:23.479Z,100419.33
2019-06-15T13:01:02.337Z,100422.80
2019-06-15T13:03:22.400Z,100425.91
2019-06-15T13:05:50.905Z,100429.86
2019-06-15T13:08:19.377Z,100425.44
2019-06-15T13:10:47.864Z,100434.56
2019-06-15T13:13:16.327Z,100440.81
2019-06-15T13:15:44.788Z,100441.67
2019-06-15T13:18:13.271Z,100438.83
2019-06-15T13:20:41.703Z,100443.47
2019-06-15T13:23:10.172Z,100445.35
2019-06-15T13:25:38.635Z,100443.64
2019-06-15T13:28:07.075Z,100435.91
2019-06-15T13:30:35.566Z,100437.33
2019-06-15T13:33:04.005Z,100439.10
2019-06-15T13:35:32.445Z,100433.56
2019-06-15T13:38:00.914Z,100435.59
2019-06-15T13:40:29.350Z,100430.74
2019-06-15T13:42:57.822Z,100423.19
2019-06-15T13:45:26.537Z,100426.80
2019-06-15T13:47:55.012Z,100430.43
2019-06-15T13:50:23.478Z,100427.81
2019-06-15T13:52:52.004Z,100434.01
2019-06-15T13:55:21.922Z,100431.84
2019-06-15T13:57:50.629Z,100433.00
2019-06-15T14:00:19.649Z,100439.41
2019-06-15T14:02:48.234Z,100445.69
2019-06-15T14:05:16.861Z,100464.64
2019-06-15T14:07:45.322Z,100465.72
2019-06-15T14:10:14.113Z,100469.93
2019-06-15T14:12:42.762Z,100463.58
2019-06-15T14:15:12.144Z,100468.77
2019-06-15T14:17:40.591Z,100469.92
2019-06-15T14:20:09.296Z,100480.39
2019-06-15T14:22:37.754Z,100473.38
2019-06-15T14:25:07.449Z,100473.95
2019-06-15T14:27:35.911Z,100474.05
2019-06-15T14:30:07.021Z,100476.66
2019-06-15T14:32:35.518Z,100477.23
2019-06-15T14:35:07.035Z,100480.13
2019-06-15T14:37:35.464Z,100472.23
2019-06-15T14:40:05.062Z,100479.36
2019-06-15T14:42:33.506Z,100472.42
2019-06-15T14:45:01.966Z,100475.80
2019-06-15T14:47:30.520Z,100482.23
2019-06-15T14:49:58.975Z,100478.00
2019-06-15T14:52:27.415Z,100471.48
2019-06-15T14:54:56.700Z,100472.23
2019-06-15T14:57:27.017Z,100466.66
2019-06-15T15:00:04.363Z,100465.60
2019-06-15T15:02:26.308Z,100460.86
2019-06-15T15:04:56.516Z,100458.17
2019-06-15T15:07:26.357Z,100463.66
2019-06-15T15:09:56.640Z,100464.88
2019-06-15T15:12:26.664Z,100465.30
2019-06-15T15:14:56.547Z,100455.64
2019-06-15T15:17:26.779Z,100469.81
2019-06-15T15:19:57.433Z,100460.98
2019-06-15T15:22:26.802Z,100458.39
2019-06-15T15:24:56.212Z,100467.72
2019-06-15T15:27:26.948Z,100485.09
2019-06-15T15:29:57.039Z,100500.81
2019-06-15T15:32:30.493Z,100511.27
2019-06-15T15:34:55.987Z,100520.12
2019-06-15T15:37:26.865Z,100534.72
2019-06-15T15:39:56.481Z,100535.73
2019-06-15T15:42:26.749Z,100543.39
2019-06-15T15:44:56.565Z,100550.76
2019-06-15T15:47:27.253Z,100559.62
2019-06-15T15:49:57.613Z,100557.53
2019-06-15T15:52:26.981Z,100559.14
2019-06-15T15:54:56.507Z,100585.73
2019-06-15T15:57:26.634Z,100582.19
2019-06-15T15:59:56.414Z,100582.19
2019-06-15T16:02:35.404Z,100591.66
2019-06-15T16:04:57.506Z,100598.73
2019-06-15T16:07:27.756Z,100607.27
2019-06-15T16:09:55.623Z,100599.18
2019-06-15T16:12:24.133Z,100600.17
2019-06-15T16:14:52.576Z,100598.53
2019-06-15T16:17:21.033Z,100594.66
2019-06-15T16:19:49.484Z,100602.00
2019-06-15T16:22:17.925Z,100599.22
2019-06-15T16:24:47.879Z,100612.02
2019-06-15T16:27:16.563Z,100595.78
2019-06-15T16:29:46.953Z,100610.79
2019-06-15T16:32:16.098Z,100609.92
2019-06-15T16:34:47.291Z,100608.88
2019-06-15T16:37:16.974Z,100598.98
2019-06-15T16:39:46.756Z,100604.04
2019-06-15T16:42:15.444Z,100603.58
2019-06-15T16:44:43.953Z,100614.13
2019-06-15T16:47:12.400Z,100618.92
2019-06-15T16:49:40.843Z,100633.39
2019-06-15T16:52:09.344Z,100628.48
2019-06-15T16:54:37.816Z,100636.41
2019-06-15T16:57:06.260Z,100634.47
2019-06-15T16:59:36.378Z,100634.72
2019-06-15T17:02:06.432Z,100634.91
2019-06-15T17:04:36.408Z,100627.84
2019-06-15T17:07:07.109Z,100634.85
2019-06-15T17:09:36.183Z,100655.72
2019-06-15T17:12:06.574Z,100657.90
2019-06-15T17:14:36.409Z,100675.03
2019-06-15T17:17:05.513Z,100670.81
2019-06-15T17:19:36.211Z,100672.16
2019-06-15T17:22:16.656Z,100678.36
2019-06-15T17:24:36.826Z,100678.36
2019-06-15T17:27:06.126Z,100679.52
2019-06-15T17:29:34.801Z,100689.36
2019-06-15T17:32:03.242Z,100691.23
2019-06-15T17:34:31.733Z,100685.64
2019-06-15T17:37:00.172Z,100693.34
2019-06-15T17:39:29.607Z,100682.37
2019-06-15T17:41:58.480Z,100672.53
2019-06-15T17:44:26.914Z,100676.98
2019-06-15T17:46:56.620Z,100674.17
2019-06-15T17:49:27.111Z,100672.16
2019-06-15T17:51:55.349Z,100677.37
2019-06-15T17:54:23.819Z,100683.95
2019-06-15T17:56:52.292Z,100691.59
2019-06-15T17:59:22.449Z,100697.67
2019-06-15T18:01:50.972Z,100706.14
2019-06-15T18:04:19.426Z,100712.45
2019-06-15T18:06:47.896Z,100715.56
2019-06-15T18:09:17.061Z,100713.41
2019-06-15T18:11:46.414Z,100714.92
2019-06-15T18:14:17.521Z,100708.11
2019-06-15T18:16:47.085Z,100729.92
2019-06-15T18:19:17.097Z,100726.45
2019-06-15T18:21:46.681Z,100737.56
2019-06-15T18:24:16.301Z,100732.27
2019-06-15T18:26:47.144Z,100737.52
2019-06-15T18:29:16.827Z,100737.76
2019-06-15T18:31:45.389Z,100725.80
2019-06-15T18:34:16.728Z,100726.05
2019-06-15T18:36:44.031Z,100723.67
2019-06-15T18:39:12.481Z,100730.52
2019-06-15T18:41:40.908Z,100724.00
2019-06-15T18:44:09.343Z,100720.21
2019-06-15T18:46:37.835Z,100711.19
2019-06-15T18:49:06.850Z,100704.41
2019-06-15T18:51:35.395Z,100706.04
2019-06-15T18:54:03.837Z,100706.59
2019-06-15T18:56:32.299Z,100716.21
2019-06-15T18:59:00.736Z,100708.80
2019-06-15T19:01:29.209Z,100708.06
2019-06-15T19:03:57.654Z,100707.56
2019-06-15T19:06:26.496Z,100709.27
2019-06-15T19:08:57.284Z,100719.52
2019-06-15T19:11:27.384Z,100725.00
2019-06-15T19:13:56.314Z,100721.83
2019-06-15T19:16:24.937Z,100728.64
2019-06-15T19:18:53.413Z,100734.11
2019-06-15T19:21:21.842Z,100752.78
2019-06-15T19:23:56.477Z,100761.00
2019-06-15T19:26:26.897Z,100775.78
2019-06-15T19:28:55.993Z,100784.92
2019-06-15T19:31:24.535Z,100791.89
2019-06-15T19:33:53.021Z,100804.58
2019-06-15T19:36:21.464Z,100811.14
2019-06-15T19:38:50.274Z,100819.13
2019-06-15T19:41:18.782Z,100834.43
2019-06-15T19:43:47.215Z,100845.28
2019-06-15T19:46:17.046Z,100864.37
2019-06-15T19:48:45.859Z,100874.47
2019-06-15T19:51:14.380Z,100894.20
2019-06-15T19:53:42.824Z,100895.50
2019-06-15T19:56:11.296Z,100904.70
2019-06-15T19:58:39.752Z,100914.73
2019-06-15T20:01:08.302Z,100916.42
2019-06-15T20:03:36.743Z,100923.05
2019-06-15T20:06:06.444Z,100929.95
2019-06-15T20:08:36.172Z,100932.28
2019-06-15T20:11:06.964Z,100931.18
2019-06-15T20:13:37.120Z,100937.64
2019-06-15T20:16:07.790Z,100927.19
2019-06-15T20:18:37.486Z,100928.17
2019-06-15T20:21:07.294Z,100938.04
2019-06-15T20:23:37.214Z,100929.68
2019-06-15T20:26:06.601Z,100929.00
2019-06-15T20:28:35.384Z,100939.40
2019-06-15T21:32:46.602Z,100991.23
2019-06-15T21:35:15.219Z,100989.48
2019-06-15T21:37:46.294Z,101009.59
2019-06-15T21:40:15.985Z,101004.56
2019-06-15T21:42:46.748Z,101007.16
2019-06-15T21:45:15.019Z,101013.27
2019-06-15T21:47:43.445Z,101006.40
2019-06-15T21:50:12.069Z,101009.05
2019-06-15T21:52:40.538Z,101015.27
2019-06-15T21:55:10.014Z,101017.47
2019-06-15T21:57:38.478Z,101027.75
2019-06-15T22:00:17.195Z,101039.38
2019-06-15T22:02:46.917Z,101043.04
2019-06-15T22:05:16.565Z,101039.11
2019-06-15T22:07:47.433Z,101032.45
2019-06-15T22:10:16.085Z,101038.75
2019-06-15T22:12:46.054Z,101036.14
2019-06-15T22:15:16.146Z,101033.63
2019-06-15T22:17:47.270Z,101032.75
2019-06-15T22:20:16.920Z,101043.81
2019-06-15T22:22:47.051Z,101049.56
2019-06-15T22:25:16.004Z,101053.08
2019-06-15T22:27:46.706Z,101062.34
2019-06-15T22:30:17.046Z,101064.71
2019-06-15T22:32:47.316Z,101081.49
2019-06-15T22:35:16.489Z,101074.39
2019-06-15T22:37:46.832Z,101081.94
2019-06-15T22:40:16.604Z,101087.14
2019-06-15T22:42:47.081Z,101086.61
2019-06-15T22:45:17.210Z,101093.72
2019-06-15T22:47:46.751Z,101103.98
2019-06-15T22:50:16.096Z,101101.34
2019-06-15T22:52:47.135Z,101100.89
2019-06-15T22:55:16.556Z,101090.30
2019-06-15T22:57:46.102Z,101095.29
2019-06-15T23:00:17.197Z,101098.84
2019-06-15T23:02:46.172Z,101105.13
2019-06-15T23:05:16.950Z,101105.58
2019-06-15T23:07:47.101Z,101105.50
2019-06-15T23:10:16.717Z,101108.67
2019-06-15T23:12:46.408Z,101112.23
2019-06-15T23:15:17.474Z,101100.77
2019-06-15T23:17:46.624Z,101102.98
2019-06-15T23:20:17.152Z,101107.80
2019-06-15T23:22:46.817Z,101107.34
2019-06-15T23:25:17.511Z,101106.95
2019-06-15T23:27:46.985Z,101110.92
2019-06-15T23:30:16.351Z,101109.66
2019-06-15T23:32:46.815Z,101116.30
2019-06-15T23:35:16.781Z,101110.61
2019-06-15T23:37:46.498Z,101119.88
2019-06-15T23:40:28.762Z,101114.14
2019-06-15T23:42:57.210Z,101118.99
2019-06-15T23:45:26.818Z,101123.38
2019-06-15T23:47:57.464Z,101117.69
2019-06-15T23:50:26.438Z,101118.97
2019-06-15T23:52:55.054Z,101127.34
2019-06-15T23:55:23.511Z,101136.13
2019-06-15T23:57:51.974Z,101135.69
